Time;durP1;ratioP1;P1;durP2;ratioP2;P2;SDS_P1;SDS_P2;PMS_P1;PMS_P2;Temp;Humidity;BMP_temperature;BMP_pressure;BME280_temperature;BME280_humidity;BME280_pressure;Samples;Min_cycle;Max_cycle;Signal;HPM_P1;HPM_P2
2022/09/21 14:37:25;;;;;;;4.50;4.30;;;20.70;1.00;;;;;;6227522;23;20190;-54
2022/09/21 14:39:51;;;;;;;4.30;4.00;;;20.00;1.00;;;;;;6241736;23;20239;-55
2022/09/21 14:42:22;;;;;;;3.97;3.67;;;19.40;48.20;;;;;;6242447;23;20695;-51
2022/09/21 14:44:50;;;;;;;4.27;3.97;;;19.00;99.90;;;;;;6240783;23;20359;-52
2022/09/21 14:47:28;;;;;;;4.03;3.83;;;18.60;99.90;;;;;;6242061;23;20372;-54
2022/09/21 14:50:07;;;;;;;4.00;3.80;;;18.10;85.00;;;;;;6241049;23;20392;-49
2022/09/21 14:52:55;;;;;;;4.80;4.50;;;17.60;99.90;;;;;;6241177;23;20360;-53
2022/09/21 14:55:40;;;;;;;4.23;3.93;;;17.00;99.90;;;;;;6241285;23;20416;-51
2022/09/21 14:58:30;;;;;;;4.10;3.90;;;16.60;99.90;;;;;;6241710;23;20360;-51
2022/09/21 15:01:19;;;;;;;3.80;3.50;;;16.30;1.00;;;;;;6240623;23;20669;-54
2022/09/21 15:03:56;;;;;;;3.90;3.60;;;16.10;1.00;;;;;;6241726;23;20362;-53
2022/09/21 15:12:12;;;;;;;4.23;3.87;;;15.80;64.10;;;;;;6241088;23;20427;-51
2022/09/21 15:14:45;;;;;;;4.30;3.93;;;15.60;1.00;;;;;;6241259;23;21337;-51
2022/09/21 15:17:25;;;;;;;6.60;6.03;;;15.50;41.50;;;;;;6242046;23;20363;-52
2022/09/21 15:19:57;;;;;;;4.30;4.00;;;15.40;1.00;;;;;;6241652;23;20379;-51
2022/09/21 15:22:23;;;;;;;4.67;4.27;;;15.30;99.90;;;;;;6241080;23;20363;-52
2022/09/21 15:24:54;;;;;;;6.03;5.43;;;15.20;1.00;;;;;;6241553;23;20477;-52
2022/09/21 15:27:22;;;;;;;4.93;4.43;;;15.20;99.90;;;;;;6240561;23;20366;-52
2022/09/21 15:29:52;;;;;;;4.00;3.60;;;15.20;54.40;;;;;;6241280;23;20817;-53
2022/09/21 15:32:43;;;;;;;3.70;3.40;;;15.10;1.00;;;;;;6241405;23;20397;-49
2022/09/21 15:35:14;;;;;;;3.00;2.80;;;15.10;99.90;;;;;;6241180;23;20859;-49
2022/09/21 15:37:40;;;;;;;3.53;3.00;;;14.90;99.90;;;;;;6239325;23;20802;-53
2022/09/21 15:40:20;;;;;;;3.07;2.87;;;14.90;99.90;;;;;;6240982;23;20365;-53
2022/09/21 15:43:10;;;;;;;2.97;2.77;;;14.80;1.00;;;;;;6239875;23;20213;-51
2022/09/21 15:45:58;;;;;;;2.87;2.67;;;14.60;1.00;;;;;;6240623;23;20391;-51
2022/09/21 15:48:26;;;;;;;3.27;3.07;;;14.50;1.00;;;;;;6239970;23;20415;-54
2022/09/21 15:51:09;;;;;;;3.97;3.30;;;14.60;1.00;;;;;;6238440;23;20465;-54
2022/09/21 15:53:47;;;;;;;4.20;3.80;;;14.50;1.00;;;;;;6239078;23;20886;-51
2022/09/21 15:56:22;;;;;;;3.60;3.30;;;14.50;1.00;;;;;;6239669;23;20442;-55
2022/09/21 15:58:49;;;;;;;3.60;3.30;;;14.60;1.00;;;;;;6240944;23;20817;-54
2022/09/21 16:01:20;;;;;;;5.13;3.40;;;14.60;1.00;;;;;;6240536;23;20373;-51
2022/09/21 16:03:46;;;;;;;4.00;3.50;;;14.60;1.00;;;;;;6238362;23;20361;-55
2022/09/21 16:06:23;;;;;;;3.30;3.00;;;14.60;1.00;;;;;;6240085;23;20385;-53
2022/09/21 16:08:49;;;;;;;3.60;3.30;;;14.60;1.00;;;;;;6240665;23;20372;-53
2022/09/21 16:11:26;;;;;;;3.60;3.20;;;14.60;1.00;;;;;;6241368;23;20399;-51
2022/09/21 16:17:05;;;;;;;4.73;3.70;;;14.60;1.00;;;;;;6241549;23;20384;-48
2022/09/21 16:19:42;;;;;;;4.27;3.40;;;14.70;1.00;;;;;;6240912;23;20372;-47
2022/09/21 16:22:19;;;;;;;4.10;3.70;;;14.60;1.00;;;;;;6241554;23;20361;-47
2022/09/21 16:24:53;;;;;;;5.40;4.90;;;14.50;1.00;;;;;;6241341;23;20777;-49
2022/09/21 16:27:21;;;;;;;5.20;4.40;;;14.60;1.00;;;;;;6240989;23;20374;-48
2022/09/21 16:29:49;;;;;;;4.60;4.10;;;14.60;1.00;;;;;;6240050;23;20724;-48
2022/09/21 16:32:17;;;;;;;4.50;4.10;;;14.50;1.00;;;;;;6240507;23;20364;-50
2022/09/21 16:34:44;;;;;;;6.13;5.53;;;14.40;1.00;;;;;;6241138;23;20425;-48
2022/09/21 16:37:19;;;;;;;6.27;5.70;;;14.40;1.00;;;;;;6241520;23;20366;-45
2022/09/21 16:39:45;;;;;;;6.53;5.90;;;14.30;1.00;;;;;;6241097;23;20448;-46
2022/09/21 16:42:11;;;;;;;5.83;5.33;;;14.10;1.00;;;;;;6241411;23;20371;-46
2022/09/21 16:44:43;;;;;;;6.90;6.20;;;14.00;1.00;;;;;;6241336;23;20905;-49
2022/09/21 16:47:15;;;;;;;6.27;5.77;;;13.90;1.00;;;;;;6241506;23;20364;-47
2022/09/21 16:49:41;;;;;;;6.80;6.20;;;13.80;1.00;;;;;;6241285;23;20403;-45
2022/09/21 16:52:07;;;;;;;13.00;11.70;;;13.70;1.00;;;;;;6241372;23;20802;-49
2022/09/21 16:54:36;;;;;;;12.33;11.10;;;13.60;1.00;;;;;;6241177;23;20411;-49
2022/09/21 16:57:02;;;;;;;11.17;9.47;;;13.50;1.00;;;;;;6241249;23;20374;-45
2022/09/21 16:59:29;;;;;;;10.50;9.50;;;13.40;17.90;;;;;;6241158;23;20371;-49
2022/09/21 17:01:56;;;;;;;9.80;8.90;;;13.30;21.00;;;;;;6241032;23;20406;-47
2022/09/21 17:04:26;;;;;;;11.70;10.10;;;13.10;26.60;;;;;;6241104;23;20367;-50
2022/09/21 17:06:53;;;;;;;10.33;9.33;;;13.00;32.20;;;;;;6241491;23;20428;-47
2022/09/21 17:09:30;;;;;;;15.10;9.70;;;12.90;40.50;;;;;;6240993;23;20410;-46
2022/09/21 17:11:59;;;;;;;9.43;8.53;;;12.80;42.70;;;;;;6241242;23;20362;-50
2022/09/21 17:14:35;;;;;;;9.40;8.50;;;12.70;50.00;;;;;;6240834;23;20405;-46
2022/09/21 17:17:10;;;;;;;9.40;8.50;;;12.60;58.50;;;;;;6241279;23;20799;-50
2022/09/21 17:19:35;;;;;;;10.00;9.00;;;12.50;65.00;;;;;;6241494;23;20419;-45
2022/09/21 17:22:03;;;;;;;10.57;9.47;;;12.40;85.60;;;;;;6214743;23;21105;-46
2022/09/21 17:24:28;;;;;;;11.10;8.03;;;12.30;89.70;;;;;;6241297;23;20159;-49
2022/09/21 17:26:54;;;;;;;10.23;9.13;;;12.20;92.40;;;;;;6241136;23;20392;-46
2022/09/21 17:29:25;;;;;;;9.37;8.43;;;12.10;94.90;;;;;;6241046;23;20175;-50
2022/09/21 17:31:53;;;;;;;9.07;8.27;;;12.00;95.70;;;;;;6240987;23;20565;-45
2022/09/21 17:34:20;;;;;;;10.27;9.27;;;11.90;99.90;;;;;;6240806;23;20738;-47
2022/09/21 17:36:46;;;;;;;10.73;9.73;;;11.80;99.90;;;;;;6240997;23;20451;-51
2022/09/21 17:39:12;;;;;;;14.67;13.17;;;11.70;99.90;;;;;;6214207;23;20443;-48
2022/09/21 17:41:41;;;;;;;16.27;14.60;;;11.60;99.90;;;;;;6241122;23;20451;-50
2022/09/21 17:44:14;;;;;;;15.40;13.90;;;11.50;99.90;;;;;;6240984;23;20372;-48
2022/09/21 17:46:50;;;;;;;15.73;14.13;;;11.50;99.90;;;;;;6241007;23;20672;-48
2022/09/21 17:49:16;;;;;;;13.70;12.30;;;11.40;99.90;;;;;;6241114;23;20379;-46
2022/09/21 17:54:31;;;;;;;12.40;11.00;;;11.30;99.90;;;;;;6184385;23;20197;-47
2022/09/21 17:57:10;;;;;;;11.90;10.60;;;11.10;99.90;;;;;;6241025;23;20409;-48
2022/09/21 17:59:36;;;;;;;10.90;9.80;;;11.20;99.90;;;;;;6240858;23;20486;-46
2022/09/21 18:02:30;;;;;;;11.10;9.83;;;11.10;99.90;;;;;;6241011;23;20728;-46
2022/09/21 18:05:03;;;;;;;12.73;11.50;;;11.10;99.90;;;;;;6240991;23;20521;-49
2022/09/21 18:07:29;;;;;;;23.57;21.23;;;11.00;99.90;;;;;;6242950;23;20417;-45
2022/09/21 18:09:54;;;;;;;20.03;18.00;;;10.90;99.90;;;;;;6243134;23;20770;-48
2022/09/21 18:12:53;;;;;;;16.83;14.97;;;10.80;99.90;;;;;;6242835;23;20160;-47
2022/09/21 18:15:39;;;;;;;25.23;22.67;;;10.70;99.90;;;;;;6215650;23;20248;-47
2022/09/21 18:18:07;;;;;;;25.00;22.40;;;10.60;99.90;;;;;;6242583;23;20372;-47
2022/09/21 18:21:00;;;;;;;23.57;21.07;;;10.60;99.90;;;;;;6242686;23;20364;-47
2022/09/21 18:23:42;;;;;;;24.80;22.20;;;10.50;99.90;;;;;;6242798;23;20368;-45
2022/09/21 18:26:15;;;;;;;17.70;15.73;;;10.50;99.90;;;;;;6242727;23;20759;-48
2022/09/21 18:28:46;;;;;;;19.37;17.37;;;10.50;99.90;;;;;;6242447;23;20348;-46
2022/09/21 18:31:24;;;;;;;15.57;14.07;;;10.40;99.90;;;;;;6240558;23;20505;-47
2022/09/21 18:33:55;;;;;;;16.40;14.80;;;10.40;99.90;;;;;;6240474;23;20502;-46
2022/09/21 18:37:01;;;;;;;19.33;17.53;;;10.30;99.90;;;;;;6242652;23;20446;-49
2022/09/21 18:39:50;;;;;;;16.77;15.17;;;10.30;99.90;;;;;;6242580;23;20478;-49
2022/09/21 18:42:44;;;;;;;15.87;14.27;;;10.20;99.90;;;;;;6242069;23;20746;-46
2022/09/21 18:45:32;;;;;;;15.93;14.43;;;10.10;99.90;;;;;;6242286;23;20376;-48
2022/09/21 18:48:26;;;;;;;15.37;13.77;;;10.10;99.90;;;;;;6242772;23;20442;-49
2022/09/21 18:51:03;;;;;;;22.60;20.40;;;10.10;99.90;;;;;;6241759;23;20369;-45
2022/09/21 18:53:43;;;;;;;18.10;16.00;;;10.00;99.90;;;;;;6242515;23;20397;-51
2022/09/21 18:56:10;;;;;;;21.83;19.53;;;10.00;99.90;;;;;;6242216;23;20368;-48
2022/09/21 18:58:37;;;;;;;21.00;18.90;;;9.90;99.90;;;;;;6242051;23;20743;-48
2022/09/21 19:01:03;;;;;;;21.03;18.80;;;9.80;99.90;;;;;;6241757;23;20411;-48
2022/09/21 19:03:30;;;;;;;17.27;15.50;;;9.80;99.90;;;;;;6241744;23;20447;-51
2022/09/21 19:06:05;;;;;;;14.43;12.50;;;9.70;99.90;;;;;;6242327;23;20404;-49
2022/09/21 19:08:38;;;;;;;13.60;12.20;;;9.70;99.90;;;;;;6242442;23;20368;-48
2022/09/21 19:11:15;;;;;;;18.90;16.90;;;9.60;99.90;;;;;;6241653;23;20435;-47
2022/09/21 19:13:49;;;;;;;13.87;12.50;;;9.60;99.90;;;;;;6242442;23;20407;-48
2022/09/21 19:16:31;;;;;;;16.87;15.07;;;9.60;99.90;;;;;;6241494;23;20405;-48
2022/09/21 19:19:32;;;;;;;14.90;13.40;;;9.60;99.90;;;;;;6242669;23;20410;-47
2022/09/21 19:22:07;;;;;;;12.27;11.00;;;9.50;99.90;;;;;;6228710;23;20846;-47
2022/09/21 19:25:14;;;;;;;13.10;11.80;;;9.50;99.90;;;;;;6242287;23;20679;-47
2022/09/21 19:27:48;;;;;;;18.23;15.63;;;9.40;99.90;;;;;;6237186;23;20474;-46
2022/09/21 19:30:15;;;;;;;15.87;12.83;;;9.40;99.90;;;;;;6242089;23;20818;-49
2022/09/21 19:32:49;;;;;;;11.87;10.70;;;9.40;99.90;;;;;;6241012;23;20380;-48
2022/09/21 19:35:18;;;;;;;13.37;12.07;;;9.40;99.90;;;;;;6241656;23;20850;-45
2022/09/21 19:37:45;;;;;;;12.10;10.90;;;9.40;99.90;;;;;;6241849;23;20404;-46
2022/09/21 19:40:12;;;;;;;12.33;11.13;;;9.40;99.90;;;;;;6241596;23;20365;-47
2022/09/21 19:42:58;;;;;;;12.07;10.87;;;9.30;99.90;;;;;;6241648;23;20384;-52
2022/09/21 19:45:43;;;;;;;13.03;11.73;;;9.30;99.90;;;;;;6241828;23;20387;-46
2022/09/21 19:48:14;;;;;;;12.63;11.33;;;9.30;99.90;;;;;;6241640;23;20379;-45
2022/09/21 19:50:45;;;;;;;12.30;11.13;;;9.20;99.90;;;;;;6241588;23;20377;-44
2022/09/21 20:01:27;;;;;;;14.03;12.27;;;9.10;99.90;;;;;;6240950;23;20375;-49
2022/09/21 20:03:54;;;;;;;12.90;11.47;;;9.10;99.90;;;;;;6240787;23;20443;-46
2022/09/21 20:06:28;;;;;;;12.30;11.03;;;9.00;99.90;;;;;;6240966;23;20423;-48
2022/09/21 20:09:38;;;;;;;16.30;13.27;;;9.00;99.90;;;;;;6233764;23;20438;-52
2022/09/21 20:12:37;;;;;;;14.33;12.90;;;9.00;99.90;;;;;;6241503;23;20406;-46
2022/09/21 20:15:28;;;;;;;14.80;13.30;;;9.10;99.90;;;;;;6241383;23;20411;-50
2022/09/21 20:18:16;;;;;;;14.93;13.40;;;9.10;99.90;;;;;;6240580;23;20361;-49
2022/09/21 20:20:42;;;;;;;14.20;12.80;;;9.00;99.90;;;;;;6240588;23;20375;-51
2022/09/21 20:23:11;;;;;;;13.60;12.20;;;9.00;99.90;;;;;;6241413;23;20787;-47
2022/09/21 20:25:54;;;;;;;13.80;12.33;;;8.90;99.90;;;;;;6240092;23;20149;-49
2022/09/21 20:28:20;;;;;;;14.20;12.80;;;8.90;99.90;;;;;;6240344;23;20392;-48
2022/09/21 20:30:46;;;;;;;14.60;13.10;;;8.90;99.90;;;;;;6239979;23;20426;-47
2022/09/21 20:33:14;;;;;;;13.97;12.47;;;8.90;99.90;;;;;;6241443;23;20380;-49
2022/09/21 20:35:44;;;;;;;13.53;12.13;;;8.80;99.90;;;;;;6241673;23;20408;-50
2022/09/21 20:38:10;;;;;;;13.60;12.30;;;8.90;99.90;;;;;;6241284;23;20809;-47
2022/09/21 20:40:36;;;;;;;14.73;13.23;;;8.90;99.90;;;;;;6241209;23;20365;-45
2022/09/21 20:43:02;;;;;;;14.63;13.13;;;8.90;99.90;;;;;;6241191;23;20455;-46
2022/09/21 20:45:28;;;;;;;15.23;13.73;;;8.90;99.90;;;;;;6241020;23;20719;-47
2022/09/21 20:47:56;;;;;;;14.90;13.30;;;8.90;99.90;;;;;;6214150;23;20455;-46
2022/09/21 20:50:29;;;;;;;14.57;13.07;;;8.90;99.90;;;;;;6241424;23;20459;-46
2022/09/21 20:52:55;;;;;;;15.17;13.70;;;8.90;99.90;;;;;;6240370;23;20360;-49
2022/09/21 20:55:21;;;;;;;15.63;14.13;;;8.90;99.90;;;;;;6241213;23;20423;-46
2022/09/21 20:57:47;;;;;;;15.03;13.53;;;8.80;99.90;;;;;;6241587;23;20430;-48
2022/09/21 21:00:14;;;;;;;16.30;14.60;;;8.90;99.90;;;;;;6241431;23;20146;-46
2022/09/21 21:02:40;;;;;;;16.17;14.67;;;8.90;99.90;;;;;;6241021;23;20720;-47
2022/09/21 21:05:07;;;;;;;15.77;13.93;;;8.80;99.90;;;;;;6241267;23;20364;-45
2022/09/21 21:07:34;;;;;;;16.17;14.67;;;8.90;99.90;;;;;;6240916;23;20365;-48
2022/09/21 21:10:01;;;;;;;18.07;15.00;;;8.80;99.90;;;;;;6241040;23;20411;-49
2022/09/21 21:12:27;;;;;;;18.33;16.43;;;8.80;99.90;;;;;;6241294;23;20360;-47
2022/09/21 21:14:52;;;;;;;19.07;17.07;;;8.90;99.90;;;;;;6241162;23;20811;-48
2022/09/21 21:17:18;;;;;;;17.70;15.90;;;8.80;99.90;;;;;;6241123;23;20684;-47
2022/09/21 21:19:44;;;;;;;18.97;17.00;;;8.90;99.90;;;;;;6241237;23;20141;-47
2022/09/21 21:22:11;;;;;;;20.90;18.70;;;8.80;99.90;;;;;;6241053;23;20145;-51
2022/09/21 21:24:40;;;;;;;19.53;17.53;;;8.80;99.90;;;;;;6241160;23;20249;-50
2022/09/21 21:27:17;;;;;;;19.97;17.97;;;8.80;99.90;;;;;;6240681;23;20357;-48
2022/09/21 21:29:48;;;;;;;20.20;18.10;;;8.80;99.90;;;;;;6241019;23;20992;-47
2022/09/21 21:32:15;;;;;;;22.37;17.70;;;8.80;99.90;;;;;;6240994;23;20834;-46
2022/09/21 21:34:42;;;;;;;19.47;17.47;;;8.90;99.90;;;;;;6239891;23;20432;-48
2022/09/21 21:37:08;;;;;;;20.40;18.20;;;8.90;99.90;;;;;;6241104;23;20711;-50
2022/09/21 21:39:33;;;;;;;19.73;17.70;;;8.90;99.90;;;;;;6214305;23;20521;-48
2022/09/21 21:41:59;;;;;;;19.27;17.27;;;8.90;99.90;;;;;;6242593;23;20407;-48
2022/09/21 21:44:25;;;;;;;22.10;18.80;;;8.80;99.90;;;;;;6242780;23;20137;-49
2022/09/21 21:46:52;;;;;;;19.30;17.20;;;8.80;99.90;;;;;;6243145;23;20137;-48
2022/09/21 21:49:18;;;;;;;19.50;17.37;;;8.80;99.90;;;;;;6243101;23;20465;-51
2022/09/21 21:51:44;;;;;;;18.87;16.90;;;8.80;99.90;;;;;;6242529;23;20368;-51
2022/09/21 21:54:10;;;;;;;18.43;16.50;;;8.80;99.90;;;;;;6242731;23;20779;-47
2022/09/21 21:56:36;;;;;;;19.37;17.37;;;8.80;99.90;;;;;;6242709;23;20415;-48
2022/09/21 21:59:02;;;;;;;18.57;16.63;;;8.80;99.90;;;;;;6242347;23;20360;-47
2022/09/21 22:01:28;;;;;;;18.50;16.60;;;8.80;99.90;;;;;;6242992;23;20467;-48
2022/09/21 22:03:59;;;;;;;21.70;18.00;;;8.70;99.90;;;;;;6243075;23;20887;-47
2022/09/21 22:06:26;;;;;;;18.90;16.90;;;8.70;99.90;;;;;;6242957;23;20446;-48
2022/09/21 22:08:53;;;;;;;17.60;15.80;;;8.70;99.90;;;;;;6242747;23;20418;-48
2022/09/21 22:11:21;;;;;;;19.60;16.60;;;8.70;99.90;;;;;;6242934;23;20739;-47
2022/09/21 22:13:47;;;;;;;17.40;15.60;;;8.70;99.90;;;;;;6242651;23;20905;-50
2022/09/21 22:16:16;;;;;;;18.40;15.70;;;8.70;99.90;;;;;;6242813;23;20367;-49
2022/09/21 22:18:42;;;;;;;16.90;15.20;;;8.80;99.90;;;;;;6242613;23;20372;-45
2022/09/21 22:21:23;;;;;;;15.50;13.90;;;8.80;99.90;;;;;;6242677;23;20439;-46
2022/09/21 22:24:03;;;;;;;17.33;15.03;;;8.80;99.90;;;;;;6242476;23;20680;-47
2022/09/21 22:26:32;;;;;;;16.40;14.57;;;8.80;99.90;;;;;;6241839;23;20443;-49
2022/09/21 22:29:00;;;;;;;16.63;13.97;;;8.90;99.90;;;;;;6242574;23;20392;-48
2022/09/21 22:31:32;;;;;;;16.10;14.20;;;8.90;99.90;;;;;;6242696;23;20422;-48
2022/09/21 22:33:58;;;;;;;16.23;14.50;;;8.90;99.90;;;;;;6242533;23;20434;-50
2022/09/21 22:36:26;;;;;;;15.60;14.10;;;8.90;99.90;;;;;;6242481;23;20384;-47
2022/09/21 22:38:53;;;;;;;15.03;13.43;;;8.90;99.90;;;;;;6242478;23;20428;-52
2022/09/21 22:41:21;;;;;;;15.07;13.57;;;8.90;99.90;;;;;;6241686;23;20471;-49
2022/09/21 22:43:49;;;;;;;16.43;14.20;;;9.00;99.90;;;;;;6242230;23;20369;-46
2022/09/21 22:46:17;;;;;;;17.97;14.53;;;9.00;99.90;;;;;;6242776;23;20419;-46
2022/09/21 22:48:44;;;;;;;16.20;14.10;;;9.00;99.90;;;;;;6242471;23;20371;-47
2022/09/21 22:51:10;;;;;;;15.97;14.40;;;9.00;99.90;;;;;;6242280;23;20404;-51
2022/09/21 22:53:36;;;;;;;15.37;13.87;;;9.00;99.90;;;;;;6241982;23;20384;-48
2022/09/21 22:56:17;;;;;;;14.67;13.17;;;9.00;99.90;;;;;;6242553;23;20418;-49
2022/09/21 22:58:48;;;;;;;15.50;13.90;;;9.00;99.90;;;;;;6242764;23;20360;-48
2022/09/21 23:01:26;;;;;;;17.87;13.70;;;9.10;99.90;;;;;;6242059;23;20380;-51
2022/09/21 23:03:57;;;;;;;13.27;11.93;;;9.10;99.90;;;;;;6241862;23;20788;-49
2022/09/21 23:06:25;;;;;;;15.40;13.70;;;9.10;99.90;;;;;;6242241;23;20368;-50
2022/09/21 23:08:52;;;;;;;14.13;12.73;;;9.10;99.90;;;;;;6242214;23;20693;-50
2022/09/21 23:11:25;;;;;;;14.07;12.67;;;9.10;99.90;;;;;;6242721;23;20438;-45
2022/09/21 23:13:51;;;;;;;13.10;11.70;;;9.10;99.90;;;;;;6242093;23;20895;-50
2022/09/21 23:16:17;;;;;;;13.57;12.27;;;9.10;99.90;;;;;;6242524;23;20357;-47
2022/09/21 23:18:43;;;;;;;13.90;11.73;;;9.10;99.90;;;;;;6242382;23;20380;-47
2022/09/21 23:21:12;;;;;;;12.57;11.27;;;9.10;99.90;;;;;;6241960;23;20145;-48
2022/09/21 23:23:39;;;;;;;14.80;11.00;;;9.10;99.90;;;;;;6241946;23;20792;-45
2022/09/21 23:26:09;;;;;;;12.90;11.07;;;9.10;99.90;;;;;;6241658;23;20437;-48
2022/09/21 23:28:36;;;;;;;11.83;10.73;;;9.10;99.90;;;;;;6241904;23;21154;-49
2022/09/21 23:31:06;;;;;;;12.83;11.53;;;9.10;99.90;;;;;;6242450;23;20410;-51
2022/09/21 23:33:32;;;;;;;14.57;12.10;;;9.10;99.90;;;;;;6241878;23;21131;-50
2022/09/21 23:35:58;;;;;;;12.67;11.37;;;9.10;99.90;;;;;;6241511;23;20349;-48
2022/09/21 23:38:25;;;;;;;12.60;11.30;;;9.10;99.90;;;;;;6241946;23;20424;-50
2022/09/21 23:40:51;;;;;;;14.47;11.80;;;9.20;99.90;;;;;;6241857;23;20493;-46
2022/09/21 23:43:17;;;;;;;12.43;10.97;;;9.10;99.90;;;;;;6214895;23;20380;-48
2022/09/21 23:45:42;;;;;;;12.83;11.43;;;9.10;99.90;;;;;;6241946;23;20402;-47
2022/09/21 23:48:08;;;;;;;11.40;10.30;;;9.10;99.90;;;;;;6242067;23;20150;-48
2022/09/21 23:50:33;;;;;;;14.33;11.90;;;9.20;99.90;;;;;;6242032;23;20177;-49
2022/09/21 23:52:59;;;;;;;12.40;10.77;;;9.20;99.90;;;;;;6242154;23;20160;-48
2022/09/21 23:55:24;;;;;;;11.30;10.20;;;9.20;99.90;;;;;;6241272;23;20176;-44
2022/09/21 23:57:50;;;;;;;12.57;10.70;;;9.20;99.90;;;;;;6241900;23;20217;-47
